Terminal Aerodrome Forecast
Issued by NWS

Home | Current Version | Previous Version | Text Only | Print | Product List | Glossary On
Versions: 1 2 3 4 5 6 7 8 9 10 11 12 13
000
FTUS42 KFFC 010344 AAA
TAFPDK
TAF AMD
KPDK 010344Z 0104/0124 11003KT P6SM FEW070
     FM010600 21005KT P6SM SKC
     FM011400 21006KT P6SM FEW035
     FM011700 17010KT P6SM SCT050=

USA.gov is the U.S. government's official web portal to all federal, state and local government web resources and services.